Terminal Aerodrome Forecast
Issued by NWS

Home | Current Version | Previous Version | Text Only | Print | Product List | Glossary On
Versions: 1 2 3 4 5 6 7 8 9 10 11 12 13
000
FTUS45 KABQ 021139
TAFROW
TAF
KROW 021139Z 0212/0312 17006KT P6SM BKN150
     FM021800 16011G18KT P6SM BKN150
     FM030200 16008KT P6SM SCT150=

USA.gov is the U.S. government's official web portal to all federal, state and local government web resources and services.